sensor_id;sensor_type;location;lat;lon;timestamp;P1;durP1;ratioP1;P2;durP2;ratioP2
5937;SDS011;2994;51.220;4.412;2022-09-13T00:01:43;6.63;;;4.53;;
5937;SDS011;2994;51.220;4.412;2022-09-13T00:04:08;5.13;;;4.63;;
5937;SDS011;2994;51.220;4.412;2022-09-13T00:06:34;5.23;;;4.00;;
5937;SDS011;2994;51.220;4.412;2022-09-13T00:08:59;4.30;;;3.90;;
5937;SDS011;2994;51.220;4.412;2022-09-13T00:11:26;6.50;;;4.30;;
5937;SDS011;2994;51.220;4.412;2022-09-13T00:13:53;4.70;;;4.30;;
5937;SDS011;2994;51.220;4.412;2022-09-13T00:16:20;4.57;;;4.17;;
5937;SDS011;2994;51.220;4.412;2022-09-13T00:18:48;4.23;;;3.73;;
5937;SDS011;2994;51.220;4.412;2022-09-13T00:21:42;4.23;;;3.93;;
5937;SDS011;2994;51.220;4.412;2022-09-13T00:24:10;4.73;;;4.30;;
5937;SDS011;2994;51.220;4.412;2022-09-13T00:26:36;5.40;;;4.20;;
5937;SDS011;2994;51.220;4.412;2022-09-13T00:29:01;5.33;;;4.23;;
5937;SDS011;2994;51.220;4.412;2022-09-13T00:31:27;4.53;;;4.13;;
5937;SDS011;2994;51.220;4.412;2022-09-13T00:33:53;5.73;;;5.23;;
5937;SDS011;2994;51.220;4.412;2022-09-13T00:36:19;4.90;;;4.40;;
5937;SDS011;2994;51.220;4.412;2022-09-13T00:38:44;4.53;;;4.00;;
5937;SDS011;2994;51.220;4.412;2022-09-13T00:41:14;5.00;;;4.50;;
5937;SDS011;2994;51.220;4.412;2022-09-13T00:44:02;4.43;;;4.03;;
5937;SDS011;2994;51.220;4.412;2022-09-13T00:49:30;5.10;;;4.17;;
5937;SDS011;2994;51.220;4.412;2022-09-13T00:52:04;5.50;;;4.07;;
5937;SDS011;2994;51.220;4.412;2022-09-13T00:54:40;5.13;;;4.30;;
5937;SDS011;2994;51.220;4.412;2022-09-13T00:57:09;4.37;;;3.97;;
5937;SDS011;2994;51.220;4.412;2022-09-13T00:59:44;4.00;;;3.60;;
5937;SDS011;2994;51.220;4.412;2022-09-13T01:02:16;4.23;;;3.83;;
5937;SDS011;2994;51.220;4.412;2022-09-13T01:04:42;4.13;;;3.73;;
5937;SDS011;2994;51.220;4.412;2022-09-13T01:07:09;5.90;;;4.30;;
5937;SDS011;2994;51.220;4.412;2022-09-13T01:09:38;5.13;;;4.60;;
5937;SDS011;2994;51.220;4.412;2022-09-13T01:15:10;4.30;;;3.70;;
5937;SDS011;2994;51.220;4.412;2022-09-13T01:17:38;4.40;;;3.57;;
5937;SDS011;2994;51.220;4.412;2022-09-13T01:20:05;5.70;;;4.33;;
5937;SDS011;2994;51.220;4.412;2022-09-13T01:27:35;4.40;;;4.00;;
5937;SDS011;2994;51.220;4.412;2022-09-13T01:35:45;6.60;;;3.73;;
5937;SDS011;2994;51.220;4.412;2022-09-13T01:38:17;4.67;;;4.23;;
5937;SDS011;2994;51.220;4.412;2022-09-13T01:46:52;4.17;;;3.20;;
5937;SDS011;2994;51.220;4.412;2022-09-13T01:49:20;3.77;;;3.47;;
5937;SDS011;2994;51.220;4.412;2022-09-13T01:52:36;5.30;;;4.50;;
5937;SDS011;2994;51.220;4.412;2022-09-13T01:55:47;6.37;;;4.20;;
5937;SDS011;2994;51.220;4.412;2022-09-13T01:58:44;4.00;;;3.67;;
5937;SDS011;2994;51.220;4.412;2022-09-13T02:01:29;4.17;;;3.77;;
5937;SDS011;2994;51.220;4.412;2022-09-13T02:04:17;4.33;;;3.93;;
5937;SDS011;2994;51.220;4.412;2022-09-13T02:07:07;4.73;;;4.10;;
5937;SDS011;2994;51.220;4.412;2022-09-13T02:09:39;3.53;;;3.23;;
5937;SDS011;2994;51.220;4.412;2022-09-13T02:12:22;4.17;;;3.77;;
5937;SDS011;2994;51.220;4.412;2022-09-13T02:14:54;4.00;;;3.60;;
5937;SDS011;2994;51.220;4.412;2022-09-13T02:17:36;4.90;;;4.03;;
5937;SDS011;2994;51.220;4.412;2022-09-13T02:20:07;4.10;;;3.63;;
5937;SDS011;2994;51.220;4.412;2022-09-13T02:22:42;4.53;;;3.70;;
5937;SDS011;2994;51.220;4.412;2022-09-13T02:25:17;4.33;;;3.70;;
5937;SDS011;2994;51.220;4.412;2022-09-13T02:27:45;3.53;;;3.10;;
5937;SDS011;2994;51.220;4.412;2022-09-13T02:30:13;4.00;;;3.60;;
5937;SDS011;2994;51.220;4.412;2022-09-13T02:38:26;4.23;;;3.80;;
5937;SDS011;2994;51.220;4.412;2022-09-13T02:41:01;4.30;;;3.80;;
5937;SDS011;2994;51.220;4.412;2022-09-13T02:43:35;5.20;;;4.07;;
5937;SDS011;2994;51.220;4.412;2022-09-13T02:46:40;4.40;;;3.67;;
5937;SDS011;2994;51.220;4.412;2022-09-13T02:51:59;5.03;;;4.27;;
5937;SDS011;2994;51.220;4.412;2022-09-13T03:00:17;5.00;;;4.07;;
5937;SDS011;2994;51.220;4.412;2022-09-13T03:02:42;5.30;;;3.73;;
5937;SDS011;2994;51.220;4.412;2022-09-13T03:05:10;5.53;;;3.53;;
5937;SDS011;2994;51.220;4.412;2022-09-13T03:07:36;4.20;;;3.80;;
5937;SDS011;2994;51.220;4.412;2022-09-13T03:10:05;3.70;;;3.40;;
5937;SDS011;2994;51.220;4.412;2022-09-13T03:24:46;5.27;;;4.87;;
5937;SDS011;2994;51.220;4.412;2022-09-13T03:30:00;3.23;;;3.00;;
5937;SDS011;2994;51.220;4.412;2022-09-13T03:35:54;3.80;;;3.50;;
5937;SDS011;2994;51.220;4.412;2022-09-13T03:38:36;3.93;;;3.40;;
5937;SDS011;2994;51.220;4.412;2022-09-13T03:41:11;4.80;;;3.53;;
5937;SDS011;2994;51.220;4.412;2022-09-13T03:43:48;4.90;;;3.73;;
5937;SDS011;2994;51.220;4.412;2022-09-13T03:46:22;5.07;;;3.50;;
5937;SDS011;2994;51.220;4.412;2022-09-13T03:49:10;5.50;;;4.57;;
5937;SDS011;2994;51.220;4.412;2022-09-13T03:51:39;4.80;;;4.30;;
5937;SDS011;2994;51.220;4.412;2022-09-13T03:54:08;5.97;;;4.07;;
5937;SDS011;2994;51.220;4.412;2022-09-13T03:56:39;4.83;;;4.43;;
5937;SDS011;2994;51.220;4.412;2022-09-13T03:59:04;6.03;;;4.77;;
5937;SDS011;2994;51.220;4.412;2022-09-13T04:01:30;4.77;;;4.33;;
5937;SDS011;2994;51.220;4.412;2022-09-13T04:03:55;4.60;;;4.03;;
5937;SDS011;2994;51.220;4.412;2022-09-13T04:06:21;3.83;;;3.53;;
5937;SDS011;2994;51.220;4.412;2022-09-13T04:08:46;7.30;;;5.20;;
5937;SDS011;2994;51.220;4.412;2022-09-13T04:11:12;5.40;;;4.90;;
5937;SDS011;2994;51.220;4.412;2022-09-13T04:13:37;5.03;;;4.50;;
5937;SDS011;2994;51.220;4.412;2022-09-13T04:16:03;6.53;;;3.97;;
5937;SDS011;2994;51.220;4.412;2022-09-13T04:18:30;5.30;;;4.10;;
5937;SDS011;2994;51.220;4.412;2022-09-13T04:20:56;5.00;;;4.50;;
5937;SDS011;2994;51.220;4.412;2022-09-13T04:23:23;6.90;;;4.80;;
5937;SDS011;2994;51.220;4.412;2022-09-13T04:25:49;5.43;;;4.93;;
5937;SDS011;2994;51.220;4.412;2022-09-13T04:28:16;7.07;;;5.70;;
5937;SDS011;2994;51.220;4.412;2022-09-13T04:30:48;5.03;;;4.53;;
5937;SDS011;2994;51.220;4.412;2022-09-13T04:33:14;5.77;;;5.20;;
5937;SDS011;2994;51.220;4.412;2022-09-13T04:35:43;6.07;;;5.47;;
5937;SDS011;2994;51.220;4.412;2022-09-13T04:38:08;5.23;;;4.53;;
5937;SDS011;2994;51.220;4.412;2022-09-13T04:40:34;5.60;;;5.00;;
5937;SDS011;2994;51.220;4.412;2022-09-13T04:43:01;5.10;;;4.50;;
5937;SDS011;2994;51.220;4.412;2022-09-13T04:45:27;5.47;;;4.97;;
5937;SDS011;2994;51.220;4.412;2022-09-13T04:47:53;4.83;;;4.43;;
5937;SDS011;2994;51.220;4.412;2022-09-13T04:50:19;5.23;;;4.60;;
5937;SDS011;2994;51.220;4.412;2022-09-13T04:52:45;5.90;;;5.13;;
5937;SDS011;2994;51.220;4.412;2022-09-13T04:55:11;5.83;;;4.83;;
5937;SDS011;2994;51.220;4.412;2022-09-13T04:57:38;6.20;;;4.90;;
5937;SDS011;2994;51.220;4.412;2022-09-13T05:00:04;5.90;;;5.40;;
5937;SDS011;2994;51.220;4.412;2022-09-13T05:02:31;5.67;;;4.70;;
5937;SDS011;2994;51.220;4.412;2022-09-13T05:04:56;5.43;;;4.93;;
5937;SDS011;2994;51.220;4.412;2022-09-13T05:07:22;5.07;;;4.60;;
5937;SDS011;2994;51.220;4.412;2022-09-13T05:09:47;5.50;;;4.73;;
5937;SDS011;2994;51.220;4.412;2022-09-13T05:12:13;5.53;;;4.40;;
5937;SDS011;2994;51.220;4.412;2022-09-13T05:14:38;8.10;;;4.80;;
5937;SDS011;2994;51.220;4.412;2022-09-13T05:17:04;4.57;;;4.13;;
5937;SDS011;2994;51.220;4.412;2022-09-13T05:19:29;6.90;;;5.20;;
5937;SDS011;2994;51.220;4.412;2022-09-13T05:21:55;5.70;;;4.50;;
5937;SDS011;2994;51.220;4.412;2022-09-13T05:24:20;5.90;;;4.87;;
5937;SDS011;2994;51.220;4.412;2022-09-13T05:26:46;7.13;;;4.90;;
5937;SDS011;2994;51.220;4.412;2022-09-13T05:29:12;6.00;;;5.10;;
5937;SDS011;2994;51.220;4.412;2022-09-13T05:31:38;5.80;;;5.07;;
5937;SDS011;2994;51.220;4.412;2022-09-13T05:34:11;10.40;;;4.90;;
5937;SDS011;2994;51.220;4.412;2022-09-13T05:36:38;5.63;;;5.07;;
5937;SDS011;2994;51.220;4.412;2022-09-13T05:39:04;5.90;;;5.23;;
5937;SDS011;2994;51.220;4.412;2022-09-13T05:41:30;8.20;;;5.77;;
5937;SDS011;2994;51.220;4.412;2022-09-13T05:43:56;6.43;;;5.83;;
5937;SDS011;2994;51.220;4.412;2022-09-13T05:46:21;9.23;;;6.57;;
5937;SDS011;2994;51.220;4.412;2022-09-13T05:48:47;8.23;;;6.20;;
5937;SDS011;2994;51.220;4.412;2022-09-13T05:51:17;7.73;;;4.90;;
5937;SDS011;2994;51.220;4.412;2022-09-13T05:53:45;6.90;;;5.90;;
5937;SDS011;2994;51.220;4.412;2022-09-13T05:56:22;7.70;;;6.07;;
5937;SDS011;2994;51.220;4.412;2022-09-13T05:58:50;8.97;;;6.97;;
5937;SDS011;2994;51.220;4.412;2022-09-13T06:01:17;9.17;;;6.70;;
5937;SDS011;2994;51.220;4.412;2022-09-13T06:03:51;6.80;;;6.10;;
5937;SDS011;2994;51.220;4.412;2022-09-13T06:06:17;10.13;;;6.57;;
5937;SDS011;2994;51.220;4.412;2022-09-13T06:08:44;10.27;;;6.13;;
5937;SDS011;2994;51.220;4.412;2022-09-13T06:11:10;6.60;;;5.20;;
5937;SDS011;2994;51.220;4.412;2022-09-13T06:13:37;7.57;;;6.33;;
5937;SDS011;2994;51.220;4.412;2022-09-13T06:16:04;13.80;;;6.50;;
5937;SDS011;2994;51.220;4.412;2022-09-13T06:18:33;9.40;;;5.87;;
5937;SDS011;2994;51.220;4.412;2022-09-13T06:21:00;10.23;;;5.67;;
5937;SDS011;2994;51.220;4.412;2022-09-13T06:23:41;7.13;;;5.27;;
5937;SDS011;2994;51.220;4.412;2022-09-13T06:26:07;12.00;;;7.57;;
5937;SDS011;2994;51.220;4.412;2022-09-13T06:28:35;14.70;;;8.00;;
5937;SDS011;2994;51.220;4.412;2022-09-13T06:31:01;13.60;;;8.50;;
5937;SDS011;2994;51.220;4.412;2022-09-13T06:33:28;10.53;;;7.20;;
5937;SDS011;2994;51.220;4.412;2022-09-13T06:35:58;10.33;;;7.50;;
5937;SDS011;2994;51.220;4.412;2022-09-13T06:38:25;11.60;;;7.53;;
5937;SDS011;2994;51.220;4.412;2022-09-13T06:40:58;11.30;;;7.17;;
5937;SDS011;2994;51.220;4.412;2022-09-13T06:43:31;8.20;;;6.87;;
5937;SDS011;2994;51.220;4.412;2022-09-13T06:45:58;8.20;;;7.20;;
5937;SDS011;2994;51.220;4.412;2022-09-13T06:48:24;8.27;;;7.47;;
5937;SDS011;2994;51.220;4.412;2022-09-13T06:50:49;8.20;;;7.40;;
5937;SDS011;2994;51.220;4.412;2022-09-13T06:53:15;9.30;;;7.20;;
5937;SDS011;2994;51.220;4.412;2022-09-13T06:55:40;10.10;;;7.60;;
5937;SDS011;2994;51.220;4.412;2022-09-13T06:58:06;8.57;;;6.87;;
5937;SDS011;2994;51.220;4.412;2022-09-13T07:00:31;9.23;;;6.87;;
5937;SDS011;2994;51.220;4.412;2022-09-13T07:02:56;10.10;;;7.67;;
5937;SDS011;2994;51.220;4.412;2022-09-13T07:05:22;8.40;;;6.97;;
5937;SDS011;2994;51.220;4.412;2022-09-13T07:07:47;8.57;;;7.50;;
5937;SDS011;2994;51.220;4.412;2022-09-13T07:10:13;10.10;;;7.90;;
5937;SDS011;2994;51.220;4.412;2022-09-13T07:12:41;9.13;;;8.10;;
5937;SDS011;2994;51.220;4.412;2022-09-13T07:15:07;10.33;;;8.37;;
5937;SDS011;2994;51.220;4.412;2022-09-13T07:17:33;12.43;;;7.17;;
5937;SDS011;2994;51.220;4.412;2022-09-13T07:19:58;10.97;;;8.27;;
5937;SDS011;2994;51.220;4.412;2022-09-13T07:22:24;11.00;;;7.97;;
5937;SDS011;2994;51.220;4.412;2022-09-13T07:24:51;9.00;;;8.10;;
5937;SDS011;2994;51.220;4.412;2022-09-13T07:27:17;12.07;;;7.30;;
5937;SDS011;2994;51.220;4.412;2022-09-13T07:29:43;9.83;;;8.13;;
5937;SDS011;2994;51.220;4.412;2022-09-13T07:32:08;10.40;;;7.77;;
5937;SDS011;2994;51.220;4.412;2022-09-13T07:34:33;13.67;;;10.53;;
5937;SDS011;2994;51.220;4.412;2022-09-13T07:36:59;12.30;;;8.83;;
5937;SDS011;2994;51.220;4.412;2022-09-13T07:39:25;11.00;;;8.90;;
5937;SDS011;2994;51.220;4.412;2022-09-13T07:41:50;11.57;;;9.20;;
5937;SDS011;2994;51.220;4.412;2022-09-13T07:44:17;10.20;;;7.80;;
5937;SDS011;2994;51.220;4.412;2022-09-13T07:46:43;13.40;;;9.60;;
5937;SDS011;2994;51.220;4.412;2022-09-13T07:49:09;10.90;;;8.53;;
5937;SDS011;2994;51.220;4.412;2022-09-13T07:51:37;12.63;;;10.10;;
5937;SDS011;2994;51.220;4.412;2022-09-13T07:54:04;8.67;;;7.70;;
5937;SDS011;2994;51.220;4.412;2022-09-13T07:56:32;9.80;;;8.80;;
5937;SDS011;2994;51.220;4.412;2022-09-13T07:59:00;12.40;;;9.53;;
5937;SDS011;2994;51.220;4.412;2022-09-13T08:01:27;12.77;;;9.33;;
5937;SDS011;2994;51.220;4.412;2022-09-13T08:04:04;12.87;;;9.50;;
5937;SDS011;2994;51.220;4.412;2022-09-13T08:06:31;13.30;;;9.63;;
5937;SDS011;2994;51.220;4.412;2022-09-13T08:08:58;11.57;;;9.73;;
5937;SDS011;2994;51.220;4.412;2022-09-13T08:11:25;17.00;;;10.53;;
5937;SDS011;2994;51.220;4.412;2022-09-13T08:13:56;13.87;;;10.40;;
5937;SDS011;2994;51.220;4.412;2022-09-13T08:16:22;14.00;;;10.77;;
5937;SDS011;2994;51.220;4.412;2022-09-13T08:18:50;11.97;;;10.50;;
5937;SDS011;2994;51.220;4.412;2022-09-13T08:21:17;14.93;;;10.90;;
5937;SDS011;2994;51.220;4.412;2022-09-13T08:23:43;13.70;;;10.10;;
5937;SDS011;2994;51.220;4.412;2022-09-13T08:26:08;10.33;;;9.20;;
5937;SDS011;2994;51.220;4.412;2022-09-13T08:28:35;17.17;;;12.20;;
5937;SDS011;2994;51.220;4.412;2022-09-13T08:31:12;12.93;;;9.53;;
5937;SDS011;2994;51.220;4.412;2022-09-13T08:33:42;13.90;;;12.00;;
5937;SDS011;2994;51.220;4.412;2022-09-13T08:36:09;13.10;;;9.43;;
5937;SDS011;2994;51.220;4.412;2022-09-13T08:38:34;12.73;;;9.40;;
5937;SDS011;2994;51.220;4.412;2022-09-13T08:44:01;12.50;;;9.80;;
5937;SDS011;2994;51.220;4.412;2022-09-13T08:46:35;14.60;;;9.40;;
5937;SDS011;2994;51.220;4.412;2022-09-13T08:49:11;13.70;;;11.40;;
5937;SDS011;2994;51.220;4.412;2022-09-13T08:51:46;14.57;;;9.97;;
5937;SDS011;2994;51.220;4.412;2022-09-13T08:54:14;13.73;;;10.07;;
5937;SDS011;2994;51.220;4.412;2022-09-13T08:56:43;14.43;;;10.27;;
5937;SDS011;2994;51.220;4.412;2022-09-13T09:07:33;11.17;;;9.27;;
5937;SDS011;2994;51.220;4.412;2022-09-13T09:10:05;8.03;;;7.27;;
5937;SDS011;2994;51.220;4.412;2022-09-13T09:12:48;7.97;;;6.43;;
5937;SDS011;2994;51.220;4.412;2022-09-13T09:15:21;8.03;;;6.93;;
5937;SDS011;2994;51.220;4.412;2022-09-13T09:20:40;8.73;;;7.83;;
5937;SDS011;2994;51.220;4.412;2022-09-13T09:23:21;9.97;;;9.07;;
5937;SDS011;2994;51.220;4.412;2022-09-13T09:25:50;9.10;;;8.27;;
5937;SDS011;2994;51.220;4.412;2022-09-13T09:28:21;8.77;;;7.83;;
5937;SDS011;2994;51.220;4.412;2022-09-13T09:31:04;9.83;;;7.80;;
5937;SDS011;2994;51.220;4.412;2022-09-13T09:36:13;7.00;;;5.97;;
5937;SDS011;2994;51.220;4.412;2022-09-13T09:38:41;7.23;;;6.47;;
5937;SDS011;2994;51.220;4.412;2022-09-13T09:41:12;7.77;;;6.40;;
5937;SDS011;2994;51.220;4.412;2022-09-13T09:43:43;6.93;;;6.20;;
5937;SDS011;2994;51.220;4.412;2022-09-13T09:46:12;7.13;;;6.43;;
5937;SDS011;2994;51.220;4.412;2022-09-13T09:48:50;7.70;;;5.90;;
5937;SDS011;2994;51.220;4.412;2022-09-13T09:51:18;9.63;;;7.10;;
5937;SDS011;2994;51.220;4.412;2022-09-13T09:53:47;6.27;;;5.67;;
5937;SDS011;2994;51.220;4.412;2022-09-13T09:58:51;7.43;;;6.50;;
5937;SDS011;2994;51.220;4.412;2022-09-13T10:01:25;6.13;;;5.60;;
5937;SDS011;2994;51.220;4.412;2022-09-13T10:04:36;6.83;;;5.30;;
5937;SDS011;2994;51.220;4.412;2022-09-13T10:06:46;6.33;;;5.47;;
5937;SDS011;2994;51.220;4.412;2022-09-13T10:11:38;6.07;;;4.80;;
5937;SDS011;2994;51.220;4.412;2022-09-13T10:14:25;4.67;;;4.27;;
5937;SDS011;2994;51.220;4.412;2022-09-13T10:20:00;5.17;;;4.67;;
5937;SDS011;2994;51.220;4.412;2022-09-13T10:22:38;5.50;;;5.00;;
5937;SDS011;2994;51.220;4.412;2022-09-13T10:28:01;6.07;;;5.57;;
5937;SDS011;2994;51.220;4.412;2022-09-13T10:36:18;6.00;;;5.40;;
5937;SDS011;2994;51.220;4.412;2022-09-13T10:41:26;6.97;;;4.93;;
5937;SDS011;2994;51.220;4.412;2022-09-13T10:43:57;5.50;;;5.00;;
5937;SDS011;2994;51.220;4.412;2022-09-13T10:46:24;6.20;;;4.33;;
5937;SDS011;2994;51.220;4.412;2022-09-13T10:48:53;5.00;;;4.40;;
5937;SDS011;2994;51.220;4.412;2022-09-13T10:51:36;5.53;;;4.40;;
5937;SDS011;2994;51.220;4.412;2022-09-13T10:57:10;5.27;;;4.87;;
5937;SDS011;2994;51.220;4.412;2022-09-13T10:59:59;4.77;;;4.37;;
5937;SDS011;2994;51.220;4.412;2022-09-13T11:05:23;6.70;;;5.20;;
5937;SDS011;2994;51.220;4.412;2022-09-13T11:10:37;7.70;;;6.03;;
5937;SDS011;2994;51.220;4.412;2022-09-13T11:24:16;11.30;;;9.30;;
5937;SDS011;2994;51.220;4.412;2022-09-13T11:27:23;9.83;;;8.80;;
5937;SDS011;2994;51.220;4.412;2022-09-13T11:30:15;9.00;;;7.37;;
5937;SDS011;2994;51.220;4.412;2022-09-13T11:35:35;10.73;;;7.30;;
5937;SDS011;2994;51.220;4.412;2022-09-13T11:46:42;8.83;;;7.90;;
5937;SDS011;2994;51.220;4.412;2022-09-13T11:57:54;11.53;;;9.90;;
5937;SDS011;2994;51.220;4.412;2022-09-13T12:00:28;10.00;;;8.37;;
5937;SDS011;2994;51.220;4.412;2022-09-13T12:05:27;11.17;;;8.60;;
5937;SDS011;2994;51.220;4.412;2022-09-13T12:07:59;8.87;;;7.90;;
5937;SDS011;2994;51.220;4.412;2022-09-13T12:13:53;11.87;;;10.67;;
5937;SDS011;2994;51.220;4.412;2022-09-13T12:16:22;9.53;;;8.63;;
5937;SDS011;2994;51.220;4.412;2022-09-13T12:18:53;8.33;;;7.53;;
5937;SDS011;2994;51.220;4.412;2022-09-13T12:21:23;11.30;;;10.30;;
5937;SDS011;2994;51.220;4.412;2022-09-13T12:29:16;8.03;;;7.33;;
5937;SDS011;2994;51.220;4.412;2022-09-13T12:32:08;10.30;;;9.30;;
5937;SDS011;2994;51.220;4.412;2022-09-13T12:39:41;9.90;;;8.60;;
5937;SDS011;2994;51.220;4.412;2022-09-13T12:45:08;10.37;;;9.30;;
5937;SDS011;2994;51.220;4.412;2022-09-13T12:47:50;10.47;;;9.47;;
5937;SDS011;2994;51.220;4.412;2022-09-13T12:50:48;10.87;;;9.87;;
5937;SDS011;2994;51.220;4.412;2022-09-13T13:01:59;8.83;;;8.10;;
5937;SDS011;2994;51.220;4.412;2022-09-13T13:04:31;11.80;;;10.70;;
5937;SDS011;2994;51.220;4.412;2022-09-13T13:07:02;8.87;;;7.97;;
5937;SDS011;2994;51.220;4.412;2022-09-13T13:12:48;8.50;;;7.80;;
5937;SDS011;2994;51.220;4.412;2022-09-13T13:17:52;8.33;;;7.63;;
5937;SDS011;2994;51.220;4.412;2022-09-13T13:36:20;11.43;;;10.30;;
5937;SDS011;2994;51.220;4.412;2022-09-13T13:38:49;8.63;;;7.73;;
5937;SDS011;2994;51.220;4.412;2022-09-13T13:41:59;7.93;;;7.33;;
5937;SDS011;2994;51.220;4.412;2022-09-13T13:46:48;8.70;;;7.90;;
5937;SDS011;2994;51.220;4.412;2022-09-13T13:59:51;14.30;;;13.07;;
5937;SDS011;2994;51.220;4.412;2022-09-13T14:02:21;15.20;;;13.67;;
5937;SDS011;2994;51.220;4.412;2022-09-13T14:07:37;13.80;;;12.80;;
5937;SDS011;2994;51.220;4.412;2022-09-13T14:10:27;14.00;;;12.90;;
5937;SDS011;2994;51.220;4.412;2022-09-13T14:13:21;15.07;;;13.77;;
5937;SDS011;2994;51.220;4.412;2022-09-13T14:16:18;14.87;;;13.57;;
5937;SDS011;2994;51.220;4.412;2022-09-13T14:23:49;13.27;;;12.17;;
5937;SDS011;2994;51.220;4.412;2022-09-13T14:26:15;14.23;;;12.93;;
5937;SDS011;2994;51.220;4.412;2022-09-13T14:28:41;12.73;;;11.63;;
5937;SDS011;2994;51.220;4.412;2022-09-13T14:31:07;12.70;;;11.50;;
5937;SDS011;2994;51.220;4.412;2022-09-13T14:33:41;14.30;;;13.00;;
5937;SDS011;2994;51.220;4.412;2022-09-13T14:36:07;12.27;;;11.23;;
5937;SDS011;2994;51.220;4.412;2022-09-13T14:38:48;12.67;;;11.50;;
5937;SDS011;2994;51.220;4.412;2022-09-13T14:41:19;13.87;;;12.57;;
5937;SDS011;2994;51.220;4.412;2022-09-13T14:43:45;11.87;;;10.87;;
5937;SDS011;2994;51.220;4.412;2022-09-13T14:46:26;13.50;;;12.30;;
5937;SDS011;2994;51.220;4.412;2022-09-13T14:48:56;12.97;;;11.67;;
5937;SDS011;2994;51.220;4.412;2022-09-13T14:51:32;14.07;;;12.57;;
5937;SDS011;2994;51.220;4.412;2022-09-13T14:54:11;13.80;;;12.50;;
5937;SDS011;2994;51.220;4.412;2022-09-13T14:56:42;11.67;;;10.67;;
5937;SDS011;2994;51.220;4.412;2022-09-13T14:59:33;12.00;;;11.00;;
5937;SDS011;2994;51.220;4.412;2022-09-13T15:02:19;11.43;;;10.53;;
5937;SDS011;2994;51.220;4.412;2022-09-13T15:04:50;12.53;;;11.40;;
5937;SDS011;2994;51.220;4.412;2022-09-13T15:07:28;14.83;;;13.57;;
5937;SDS011;2994;51.220;4.412;2022-09-13T15:12:51;13.47;;;12.30;;
5937;SDS011;2994;51.220;4.412;2022-09-13T15:20:29;16.63;;;15.13;;
5937;SDS011;2994;51.220;4.412;2022-09-13T15:23:13;13.70;;;12.60;;
5937;SDS011;2994;51.220;4.412;2022-09-13T15:25:46;15.67;;;14.17;;
5937;SDS011;2994;51.220;4.412;2022-09-13T15:28:32;16.60;;;15.10;;
5937;SDS011;2994;51.220;4.412;2022-09-13T15:31:09;15.10;;;13.80;;
5937;SDS011;2994;51.220;4.412;2022-09-13T15:36:44;16.40;;;15.10;;
5937;SDS011;2994;51.220;4.412;2022-09-13T15:41:50;16.80;;;15.40;;
5937;SDS011;2994;51.220;4.412;2022-09-13T15:44:20;15.87;;;14.50;;
5937;SDS011;2994;51.220;4.412;2022-09-13T15:46:50;15.67;;;14.37;;
5937;SDS011;2994;51.220;4.412;2022-09-13T15:49:23;15.13;;;13.90;;
5937;SDS011;2994;51.220;4.412;2022-09-13T15:51:54;13.53;;;12.33;;
5937;SDS011;2994;51.220;4.412;2022-09-13T15:54:21;12.50;;;11.37;;
5937;SDS011;2994;51.220;4.412;2022-09-13T15:56:47;13.53;;;12.43;;
5937;SDS011;2994;51.220;4.412;2022-09-13T15:59:18;13.20;;;12.20;;
5937;SDS011;2994;51.220;4.412;2022-09-13T16:01:48;12.80;;;11.70;;
5937;SDS011;2994;51.220;4.412;2022-09-13T16:04:15;12.60;;;11.50;;
5937;SDS011;2994;51.220;4.412;2022-09-13T16:06:41;13.27;;;12.00;;
5937;SDS011;2994;51.220;4.412;2022-09-13T16:09:10;11.20;;;10.23;;
5937;SDS011;2994;51.220;4.412;2022-09-13T16:11:42;11.90;;;11.00;;
5937;SDS011;2994;51.220;4.412;2022-09-13T16:14:08;11.60;;;10.70;;
5937;SDS011;2994;51.220;4.412;2022-09-13T16:16:33;12.70;;;11.70;;
5937;SDS011;2994;51.220;4.412;2022-09-13T16:18:59;11.90;;;10.90;;
5937;SDS011;2994;51.220;4.412;2022-09-13T16:21:24;11.93;;;11.00;;
5937;SDS011;2994;51.220;4.412;2022-09-13T16:23:50;11.43;;;10.37;;
5937;SDS011;2994;51.220;4.412;2022-09-13T16:26:15;11.63;;;10.63;;
5937;SDS011;2994;51.220;4.412;2022-09-13T16:28:41;11.93;;;10.90;;
5937;SDS011;2994;51.220;4.412;2022-09-13T16:31:06;10.53;;;9.57;;
5937;SDS011;2994;51.220;4.412;2022-09-13T16:33:31;11.07;;;10.10;;
5937;SDS011;2994;51.220;4.412;2022-09-13T16:35:57;11.40;;;10.50;;
5937;SDS011;2994;51.220;4.412;2022-09-13T16:38:23;11.23;;;10.23;;
5937;SDS011;2994;51.220;4.412;2022-09-13T16:40:48;10.00;;;9.10;;
5937;SDS011;2994;51.220;4.412;2022-09-13T16:43:13;10.13;;;8.87;;
5937;SDS011;2994;51.220;4.412;2022-09-13T16:45:39;10.40;;;9.60;;
5937;SDS011;2994;51.220;4.412;2022-09-13T16:48:06;9.00;;;8.10;;
5937;SDS011;2994;51.220;4.412;2022-09-13T16:50:32;8.80;;;7.90;;
5937;SDS011;2994;51.220;4.412;2022-09-13T16:52:58;8.10;;;7.40;;
5937;SDS011;2994;51.220;4.412;2022-09-13T16:55:23;6.77;;;6.27;;
5937;SDS011;2994;51.220;4.412;2022-09-13T16:57:50;6.60;;;6.00;;
5937;SDS011;2994;51.220;4.412;2022-09-13T17:00:16;6.20;;;5.60;;
5937;SDS011;2994;51.220;4.412;2022-09-13T17:02:44;6.00;;;5.10;;
5937;SDS011;2994;51.220;4.412;2022-09-13T17:05:11;7.40;;;5.40;;
5937;SDS011;2994;51.220;4.412;2022-09-13T17:07:36;4.17;;;3.87;;
5937;SDS011;2994;51.220;4.412;2022-09-13T17:10:06;5.93;;;4.27;;
5937;SDS011;2994;51.220;4.412;2022-09-13T17:12:32;5.00;;;4.40;;
5937;SDS011;2994;51.220;4.412;2022-09-13T17:14:58;4.33;;;3.90;;
5937;SDS011;2994;51.220;4.412;2022-09-13T17:17:24;4.33;;;3.93;;
5937;SDS011;2994;51.220;4.412;2022-09-13T17:19:49;4.53;;;3.63;;
5937;SDS011;2994;51.220;4.412;2022-09-13T17:22:22;4.20;;;3.40;;
5937;SDS011;2994;51.220;4.412;2022-09-13T17:24:47;3.43;;;3.00;;
5937;SDS011;2994;51.220;4.412;2022-09-13T17:27:16;4.50;;;4.07;;
5937;SDS011;2994;51.220;4.412;2022-09-13T17:29:41;4.40;;;3.53;;
5937;SDS011;2994;51.220;4.412;2022-09-13T17:32:07;4.17;;;3.57;;
5937;SDS011;2994;51.220;4.412;2022-09-13T17:34:33;5.20;;;4.10;;
5937;SDS011;2994;51.220;4.412;2022-09-13T17:37:01;4.27;;;3.57;;
5937;SDS011;2994;51.220;4.412;2022-09-13T17:39:31;3.37;;;3.07;;
5937;SDS011;2994;51.220;4.412;2022-09-13T17:41:56;4.00;;;3.53;;
5937;SDS011;2994;51.220;4.412;2022-09-13T17:44:22;3.63;;;2.90;;
5937;SDS011;2994;51.220;4.412;2022-09-13T17:46:48;3.50;;;3.07;;
5937;SDS011;2994;51.220;4.412;2022-09-13T17:49:13;2.87;;;2.67;;
5937;SDS011;2994;51.220;4.412;2022-09-13T17:51:39;4.03;;;3.10;;
5937;SDS011;2994;51.220;4.412;2022-09-13T17:54:13;4.50;;;3.30;;
5937;SDS011;2994;51.220;4.412;2022-09-13T17:56:42;5.17;;;2.97;;
5937;SDS011;2994;51.220;4.412;2022-09-13T17:59:13;3.67;;;3.20;;
5937;SDS011;2994;51.220;4.412;2022-09-13T18:01:43;3.30;;;2.70;;
5937;SDS011;2994;51.220;4.412;2022-09-13T18:04:10;4.00;;;3.20;;
5937;SDS011;2994;51.220;4.412;2022-09-13T18:06:37;4.03;;;3.20;;
5937;SDS011;2994;51.220;4.412;2022-09-13T18:09:07;3.13;;;2.87;;
5937;SDS011;2994;51.220;4.412;2022-09-13T18:11:34;3.93;;;3.53;;
5937;SDS011;2994;51.220;4.412;2022-09-13T18:14:03;4.00;;;3.37;;
5937;SDS011;2994;51.220;4.412;2022-09-13T18:16:28;3.97;;;2.73;;
5937;SDS011;2994;51.220;4.412;2022-09-13T18:18:55;3.47;;;3.17;;
5937;SDS011;2994;51.220;4.412;2022-09-13T18:21:23;2.97;;;2.67;;
5937;SDS011;2994;51.220;4.412;2022-09-13T18:23:50;6.43;;;3.20;;
5937;SDS011;2994;51.220;4.412;2022-09-13T18:26:18;5.73;;;3.53;;
5937;SDS011;2994;51.220;4.412;2022-09-13T18:28:45;4.30;;;3.23;;
5937;SDS011;2994;51.220;4.412;2022-09-13T18:31:15;3.50;;;3.03;;
5937;SDS011;2994;51.220;4.412;2022-09-13T18:33:42;3.67;;;3.30;;
5937;SDS011;2994;51.220;4.412;2022-09-13T18:36:09;3.80;;;3.07;;
5937;SDS011;2994;51.220;4.412;2022-09-13T18:38:46;4.00;;;3.70;;
5937;SDS011;2994;51.220;4.412;2022-09-13T18:41:16;5.23;;;4.27;;
5937;SDS011;2994;51.220;4.412;2022-09-13T18:43:44;4.63;;;3.60;;
5937;SDS011;2994;51.220;4.412;2022-09-13T18:46:12;4.10;;;3.70;;
5937;SDS011;2994;51.220;4.412;2022-09-13T18:48:40;4.00;;;3.33;;
5937;SDS011;2994;51.220;4.412;2022-09-13T18:51:07;4.73;;;4.20;;
5937;SDS011;2994;51.220;4.412;2022-09-13T18:53:34;4.97;;;4.00;;
5937;SDS011;2994;51.220;4.412;2022-09-13T18:56:00;5.10;;;3.87;;
5937;SDS011;2994;51.220;4.412;2022-09-13T18:58:29;4.80;;;4.03;;
5937;SDS011;2994;51.220;4.412;2022-09-13T19:01:09;4.47;;;3.63;;
5937;SDS011;2994;51.220;4.412;2022-09-13T19:03:36;3.50;;;3.03;;